San Francisco, CA

12:10 PM PST on December 02, 2016 (GMT -0800)
| | Change Station

Elev -9999 ft 0.00 °N, 0.00 °E | Updated

Clear
Clear
60 °F
Feels Like 60 °F
N
13
Wind Variable Wind from North
Gusts 19 mph

Today
High -- | Low -- °F
--% Chance of Precip.
Yesterday
High -- | Low -- °F
Precip. -- in
Pressure 30.22 in
Visibility 10.0 miles
Clouds Few 20000 ft
Dew Point 36 °F
Humidity 40%
Rainfall --
Snow Depth Not available.
7:07 AM 4:50 PM
Waxing Crescent, 10% visible
METAR KOAK 021953Z 34012KT 10SM FEW200 17/M02 A3022 RMK AO2 SLP234 T01721017
Pressure 30.22 in
Visibility 10.0 miles
Clouds Few 20000 ft
Dew Point 36 °F
Humidity 40%
Rainfall --
Snow Depth Not available.
7:07 AM 4:50 PM
Waxing Crescent, 10% visible
METAR KOAK 021953Z 34012KT 10SM FEW200 17/M02 A3022 RMK AO2 SLP234 T01721017

10-Day Weather Forecast

Almanac

Astronomy

Dec. 02, 2016 Rise Set
Actual Time
Civil Twilight
Nautical Twilight
Astronomical Twilight
Moon
Length of Visible Light
Length of Day
Tomorrow will be .
, % of the Moon is Illuminated

Today's Extremes

State Highs State Lows

Community

WunderPhotos

Upload Photos

1,955,348 photos uploaded!

WunderBlog® & News

Nearby

Air Quality

  Air Quality AQ Index Pollutant
Not available.

Snow Depth

Station Depth Elevation

Earthquake Activity

City Distance Mag. Time & Date
Minimum magnitude displayed is 2.5.

Coastal Water Temperatures

Place Temperature

Stations

Nearby Weather Stations

Station Location Temp. Windchill Dew Point Humidity Wind Precip. Elev Updated Type
                   

Watches & Warnings

There are currently no watches in effect.